createdAt,value
2023-03-21T00:00:45.571Z,24.93
2023-03-21T00:03:12.961Z,27.80
2023-03-21T00:05:45.764Z,27.33
2023-03-21T00:08:13.011Z,31.03
2023-03-21T00:10:43.724Z,31.53
2023-03-21T00:13:14.862Z,35.67
2023-03-21T00:16:08.650Z,34.23
2023-03-21T00:18:42.452Z,24.97
2023-03-21T00:24:00.160Z,25.67
2023-03-21T00:26:27.629Z,27.73
2023-03-21T00:28:54.890Z,26.73
2023-03-21T00:31:22.126Z,25.03
2023-03-21T00:33:49.305Z,24.93
2023-03-21T00:36:16.845Z,23.93
2023-03-21T00:38:44.336Z,21.40
2023-03-21T00:41:23.261Z,21.53
2023-03-21T00:43:55.598Z,21.67
2023-03-21T00:46:25.108Z,22.13
2023-03-21T00:48:52.646Z,21.53
2023-03-21T00:51:26.031Z,22.13
2023-03-21T00:53:56.501Z,19.97
2023-03-21T00:56:23.701Z,20.80
2023-03-21T00:58:51.284Z,21.80
2023-03-21T01:01:18.616Z,21.03
2023-03-21T01:03:48.217Z,22.40
2023-03-21T01:06:19.406Z,19.17
2023-03-21T01:08:54.794Z,21.73
2023-03-21T01:11:24.671Z,23.23
2023-03-21T01:13:59.617Z,23.50
2023-03-21T01:16:34.973Z,24.37
2023-03-21T01:19:05.163Z,22.33
2023-03-21T01:21:34.466Z,20.60
2023-03-21T01:24:01.828Z,21.60
2023-03-21T01:26:29.295Z,20.87
2023-03-21T01:28:56.536Z,23.97
2023-03-21T01:31:23.788Z,20.83
2023-03-21T01:33:51.013Z,16.40
2023-03-21T01:36:24.203Z,17.30
2023-03-21T01:38:52.484Z,18.67
2023-03-21T01:41:26.195Z,18.37
2023-03-21T01:43:56.025Z,18.10
2023-03-21T01:46:23.693Z,18.00
2023-03-21T01:49:02.165Z,16.97
2023-03-21T01:51:30.901Z,21.90
2023-03-21T01:53:58.295Z,16.93
2023-03-21T01:56:27.508Z,17.20
2023-03-21T01:58:57.482Z,18.37
2023-03-21T02:01:24.752Z,15.57
2023-03-21T02:03:52.586Z,16.93
2023-03-21T02:06:35.409Z,20.67
2023-03-21T02:09:04.679Z,16.60
2023-03-21T02:11:32.325Z,16.93
2023-03-21T02:14:06.111Z,16.30
2023-03-21T02:16:54.423Z,17.27
2023-03-21T02:19:32.027Z,15.93
2023-03-21T02:22:08.125Z,12.60
2023-03-21T02:24:36.929Z,15.50
2023-03-21T02:27:07.894Z,15.27
2023-03-21T02:29:52.433Z,20.03
2023-03-21T02:32:37.035Z,16.83
2023-03-21T02:35:19.862Z,19.63
2023-03-21T02:38:00.678Z,15.90
2023-03-21T02:40:51.162Z,18.10
2023-03-21T02:43:28.966Z,15.57
2023-03-21T02:46:01.023Z,18.07
2023-03-21T02:48:50.389Z,16.77
2023-03-21T02:51:19.772Z,20.30
2023-03-21T02:53:51.855Z,15.90
2023-03-21T02:56:23.313Z,18.93
2023-03-21T02:58:51.199Z,15.70
2023-03-21T03:01:18.489Z,15.33
2023-03-21T03:03:45.812Z,17.20
2023-03-21T03:06:36.965Z,15.97
2023-03-21T03:09:06.941Z,16.20
2023-03-21T03:11:35.816Z,16.73
2023-03-21T03:14:35.786Z,17.93
2023-03-21T03:16:59.783Z,25.67
2023-03-21T03:19:31.207Z,21.57
2023-03-21T03:22:09.735Z,24.40
2023-03-21T03:24:43.952Z,22.13
2023-03-21T03:27:17.725Z,22.57
2023-03-21T03:29:47.445Z,19.90
2023-03-21T03:32:18.147Z,24.27
2023-03-21T03:34:49.646Z,26.67
2023-03-21T03:37:19.917Z,25.33
2023-03-21T03:39:48.743Z,23.73
2023-03-21T03:42:28.131Z,33.80
2023-03-21T03:44:56.611Z,27.43
2023-03-21T03:47:33.732Z,26.23
2023-03-21T03:50:03.951Z,24.37
2023-03-21T03:52:33.310Z,23.33
2023-03-21T03:55:00.844Z,25.33
2023-03-21T03:57:28.313Z,24.40
2023-03-21T03:59:55.516Z,29.23
2023-03-21T04:02:22.747Z,23.83
2023-03-21T04:04:52.987Z,22.10
2023-03-21T04:07:21.490Z,23.90
2023-03-21T04:09:48.981Z,20.80
2023-03-21T04:12:16.774Z,26.60
2023-03-21T04:14:46.130Z,23.67
2023-03-21T04:17:14.523Z,23.80
2023-03-21T04:19:41.722Z,19.67
2023-03-21T04:22:09.297Z,19.70
2023-03-21T04:24:37.492Z,19.43
2023-03-21T04:27:06.003Z,21.73
2023-03-21T04:29:33.497Z,21.80
2023-03-21T04:32:01.447Z,25.17
2023-03-21T04:34:29.871Z,21.83
2023-03-21T04:36:57.578Z,19.93
2023-03-21T04:39:25.050Z,23.10
2023-03-21T04:41:52.422Z,23.47
2023-03-21T04:44:19.986Z,22.70
2023-03-21T04:46:47.216Z,22.30
2023-03-21T04:49:14.503Z,19.87
2023-03-21T04:51:44.011Z,19.50
2023-03-21T04:56:41.201Z,20.97
2023-03-21T04:59:11.863Z,22.80
2023-03-21T05:01:41.309Z,22.03
2023-03-21T05:04:08.635Z,20.43
2023-03-21T05:06:36.426Z,19.83
2023-03-21T05:09:08.047Z,21.73
2023-03-21T05:11:37.779Z,19.97
2023-03-21T05:14:05.823Z,20.40
2023-03-21T05:16:34.765Z,19.93
2023-03-21T05:19:06.107Z,22.40
2023-03-21T05:21:41.744Z,23.33
2023-03-21T05:24:12.239Z,24.43
2023-03-21T05:26:40.359Z,22.67
2023-03-21T05:29:08.275Z,20.83
2023-03-21T05:31:36.250Z,24.23
2023-03-21T05:34:03.735Z,20.33
2023-03-21T05:36:34.163Z,27.27
2023-03-21T05:39:01.903Z,24.87
2023-03-21T05:41:29.186Z,20.90
2023-03-21T05:43:56.505Z,26.63
2023-03-21T05:46:23.774Z,22.20
2023-03-21T05:48:51.155Z,23.57
2023-03-21T05:51:18.854Z,24.57
2023-03-21T05:53:47.389Z,22.33
2023-03-21T05:56:14.564Z,20.50
2023-03-21T05:58:41.996Z,27.27
2023-03-21T06:01:09.446Z,22.77
2023-03-21T06:03:36.815Z,22.13
2023-03-21T06:06:04.320Z,25.37
2023-03-21T06:08:32.211Z,29.97
2023-03-21T06:10:59.534Z,25.57
2023-03-21T06:13:26.823Z,25.10
2023-03-21T06:15:54.141Z,24.23
2023-03-21T06:18:21.400Z,23.50
2023-03-21T06:20:48.602Z,26.63
2023-03-21T06:23:15.909Z,26.33
2023-03-21T06:25:43.104Z,29.33
2023-03-21T06:28:10.308Z,30.00
2023-03-21T06:30:37.492Z,28.00
2023-03-21T06:33:04.678Z,24.83
2023-03-21T06:35:31.905Z,28.57
2023-03-21T06:37:59.745Z,26.23
2023-03-21T06:40:26.923Z,30.03
2023-03-21T06:42:54.139Z,29.37
2023-03-21T06:45:21.483Z,25.57
2023-03-21T06:47:48.788Z,28.27
2023-03-21T06:50:16.252Z,22.23
2023-03-21T06:52:43.566Z,22.77
2023-03-21T06:55:11.423Z,24.17
2023-03-21T06:57:38.667Z,22.47
2023-03-21T07:00:06.166Z,26.53
2023-03-21T07:02:33.486Z,22.93
2023-03-21T07:05:00.676Z,22.23
2023-03-21T07:07:29.314Z,21.73
2023-03-21T07:09:56.598Z,21.57
2023-03-21T07:12:24.489Z,21.37
2023-03-21T07:14:51.833Z,23.10
2023-03-21T07:17:19.016Z,24.40
2023-03-21T07:19:46.320Z,22.20
2023-03-21T07:22:13.532Z,18.70
2023-03-21T07:24:40.819Z,29.83
2023-03-21T07:27:08.306Z,23.03
2023-03-21T07:29:35.531Z,21.77
2023-03-21T07:32:02.842Z,19.33
2023-03-21T07:34:33.186Z,20.07
2023-03-21T07:37:01.300Z,19.80
2023-03-21T07:39:29.606Z,20.03
2023-03-21T07:41:56.946Z,19.97
2023-03-21T07:44:25.093Z,19.00
2023-03-21T07:46:52.400Z,19.50
2023-03-21T07:49:19.666Z,20.13
2023-03-21T07:51:47.274Z,19.10
2023-03-21T07:54:14.641Z,23.07
2023-03-21T07:56:41.973Z,21.20
2023-03-21T07:59:09.905Z,19.40
2023-03-21T08:01:37.293Z,18.27
2023-03-21T08:04:04.519Z,19.63
2023-03-21T08:06:32.532Z,21.93
2023-03-21T08:08:59.991Z,18.90
2023-03-21T08:11:31.374Z,21.93
2023-03-21T08:13:59.420Z,20.03
2023-03-21T08:16:26.815Z,18.57
2023-03-21T08:18:54.230Z,20.80
2023-03-21T08:21:21.507Z,18.50
2023-03-21T08:23:48.711Z,23.80
2023-03-21T08:26:18.461Z,19.00
2023-03-21T08:28:46.320Z,18.60
2023-03-21T08:31:14.962Z,19.20
2023-03-21T08:33:42.225Z,20.33
2023-03-21T08:36:09.981Z,20.67
2023-03-21T08:38:37.526Z,21.07
2023-03-21T08:41:04.773Z,25.67
2023-03-21T08:43:31.958Z,20.47
2023-03-21T08:45:59.374Z,22.17
2023-03-21T08:48:26.784Z,20.67
2023-03-21T08:50:54.045Z,21.70
2023-03-21T08:53:21.281Z,33.60
2023-03-21T08:55:50.111Z,24.50
2023-03-21T08:58:17.893Z,25.50
2023-03-21T09:00:45.368Z,25.50
2023-03-21T09:03:12.767Z,25.80
2023-03-21T09:05:40.214Z,30.37
2023-03-21T09:08:07.890Z,26.93
2023-03-21T09:10:35.215Z,22.17
2023-03-21T09:13:02.537Z,26.00
2023-03-21T09:15:29.948Z,25.83
2023-03-21T09:17:58.835Z,24.83
2023-03-21T09:20:31.470Z,27.10
2023-03-21T09:23:01.058Z,24.43
2023-03-21T09:25:31.397Z,29.20
2023-03-21T09:27:59.067Z,26.30
2023-03-21T09:30:26.698Z,27.33
2023-03-21T09:32:55.828Z,25.60
2023-03-21T09:35:24.313Z,29.30
2023-03-21T09:37:51.602Z,30.40
2023-03-21T09:40:21.166Z,27.60
2023-03-21T09:42:48.431Z,27.87
2023-03-21T09:45:38.773Z,25.57
2023-03-21T09:48:07.880Z,27.93
2023-03-21T09:50:36.503Z,26.53
2023-03-21T09:53:07.221Z,26.07
2023-03-21T09:55:36.659Z,24.93
2023-03-21T09:58:09.157Z,26.37
2023-03-21T10:00:42.103Z,26.23
2023-03-21T10:03:18.794Z,24.83
2023-03-21T10:05:47.049Z,26.83
2023-03-21T10:08:27.276Z,20.37
2023-03-21T10:10:56.680Z,23.13
2023-03-21T10:13:26.067Z,22.00
2023-03-21T10:16:01.092Z,23.13
2023-03-21T10:18:30.022Z,25.93
2023-03-21T10:20:57.409Z,22.20
2023-03-21T10:23:27.492Z,21.77
2023-03-21T10:26:02.932Z,26.77
2023-03-21T10:28:42.377Z,24.47
2023-03-21T10:31:19.365Z,23.17
2023-03-21T10:33:48.224Z,27.97
2023-03-21T10:36:21.448Z,25.00
2023-03-21T10:38:53.570Z,24.37
2023-03-21T10:41:21.284Z,23.30
2023-03-21T10:44:04.446Z,21.90
2023-03-21T10:46:36.010Z,24.00
2023-03-21T10:49:04.089Z,21.80
2023-03-21T10:51:33.015Z,26.10
2023-03-21T10:54:04.391Z,21.53
2023-03-21T10:56:33.055Z,24.43
2023-03-21T10:59:01.226Z,21.50
2023-03-21T11:01:40.183Z,20.47
2023-03-21T11:04:10.658Z,25.83
2023-03-21T11:06:39.920Z,25.67
2023-03-21T11:09:14.601Z,22.77
2023-03-21T11:11:43.189Z,21.90
2023-03-21T11:14:25.131Z,23.10
2023-03-21T11:16:52.517Z,24.87
2023-03-21T11:19:21.286Z,23.17
2023-03-21T11:21:48.519Z,22.33
2023-03-21T11:24:18.079Z,22.40
2023-03-21T11:26:48.197Z,24.33
2023-03-21T11:29:25.345Z,23.38
2023-03-21T11:31:52.649Z,21.30
2023-03-21T11:34:28.155Z,26.83
2023-03-21T11:36:59.358Z,26.40
2023-03-21T11:39:29.339Z,22.95
2023-03-21T11:41:56.603Z,22.97
2023-03-21T11:44:28.325Z,22.33
2023-03-21T11:46:55.863Z,26.23
2023-03-21T11:49:24.149Z,27.80
2023-03-21T11:52:11.502Z,24.30
2023-03-21T11:55:07.921Z,24.95
2023-03-21T11:57:37.991Z,24.17
2023-03-21T12:00:10.677Z,27.60
2023-03-21T12:02:38.059Z,26.42
2023-03-21T12:05:08.370Z,25.50
2023-03-21T12:07:50.494Z,24.73
2023-03-21T12:10:50.568Z,21.67
2023-03-21T12:13:37.742Z,21.88
2023-03-21T12:16:08.167Z,17.90
2023-03-21T12:18:46.741Z,19.83
2023-03-21T12:21:21.661Z,24.38
2023-03-21T12:24:09.156Z,24.95
2023-03-21T12:26:44.545Z,22.60
2023-03-21T12:29:20.902Z,22.10
2023-03-21T12:32:04.914Z,21.60
2023-03-21T12:34:44.370Z,19.77
2023-03-21T12:37:26.693Z,19.58
2023-03-21T12:39:56.423Z,21.75
2023-03-21T12:42:23.729Z,20.33
2023-03-21T12:44:52.951Z,22.10
2023-03-21T12:47:27.726Z,20.73
2023-03-21T12:50:06.779Z,20.80
2023-03-21T12:52:39.970Z,22.90
2023-03-21T12:55:23.598Z,24.25
2023-03-21T12:57:57.465Z,22.42
2023-03-21T13:01:03.205Z,25.63
2023-03-21T13:03:40.232Z,20.95
2023-03-21T13:06:08.255Z,20.35
2023-03-21T13:48:57.964Z,24.05
2023-03-21T13:51:37.391Z,21.45
2023-03-21T13:54:04.683Z,25.90
2023-03-21T13:56:50.176Z,20.42
2023-03-21T13:59:39.292Z,27.75
2023-03-21T14:02:15.573Z,22.55
2023-03-21T14:05:03.639Z,26.77
2023-03-21T14:07:32.920Z,25.30
2023-03-21T14:10:07.386Z,23.55
2023-03-21T14:12:38.197Z,21.98
2023-03-21T14:15:17.235Z,22.67
2023-03-21T14:17:54.186Z,24.80
2023-03-21T14:20:23.285Z,24.80
2023-03-21T14:22:51.194Z,28.58
2023-03-21T14:25:19.805Z,25.27
2023-03-21T14:27:52.619Z,24.17
2023-03-21T14:30:22.828Z,27.17
2023-03-21T14:32:50.142Z,22.65
2023-03-21T14:35:17.969Z,25.60
2023-03-21T14:37:47.442Z,23.00
2023-03-21T14:40:32.903Z,24.73
2023-03-21T14:43:04.592Z,24.90
2023-03-21T14:45:32.027Z,23.60
2023-03-21T14:47:59.297Z,22.17
2023-03-21T14:50:32.111Z,19.75
2023-03-21T14:52:59.852Z,24.20
2023-03-21T14:55:27.389Z,21.95
2023-03-21T14:57:56.068Z,21.25
2023-03-21T15:00:28.027Z,20.13
2023-03-21T15:02:56.055Z,22.30
2023-03-21T15:05:28.351Z,23.38
2023-03-21T15:07:57.621Z,22.90
2023-03-21T15:10:25.427Z,22.65
2023-03-21T15:12:53.182Z,23.20
2023-03-21T15:15:21.125Z,23.15
2023-03-21T15:17:48.404Z,22.02
2023-03-21T15:20:16.849Z,24.48
2023-03-21T15:22:49.178Z,22.17
2023-03-21T15:25:20.962Z,21.73
2023-03-21T15:27:50.242Z,25.83
2023-03-21T15:30:22.951Z,23.23
2023-03-21T15:32:51.078Z,26.05
2023-03-21T15:35:23.019Z,25.67
2023-03-21T15:37:54.797Z,23.98
2023-03-21T15:40:23.851Z,24.42
2023-03-21T15:42:51.501Z,31.60
2023-03-21T15:45:24.710Z,23.30
2023-03-21T15:48:03.171Z,25.38
2023-03-21T15:50:30.772Z,24.27
2023-03-21T15:53:00.190Z,23.17
2023-03-21T15:55:36.210Z,27.15
2023-03-21T15:58:13.049Z,23.30
2023-03-21T16:00:41.962Z,21.90
2023-03-21T16:03:16.910Z,25.38
2023-03-21T16:05:44.327Z,21.77
2023-03-21T16:08:27.798Z,22.57
2023-03-21T16:10:55.039Z,24.77
2023-03-21T16:13:23.281Z,23.20
2023-03-21T16:15:50.612Z,23.57
2023-03-21T16:18:17.785Z,28.20
2023-03-21T16:20:46.185Z,30.03
2023-03-21T16:23:13.979Z,27.80
2023-03-21T16:25:42.063Z,24.93
2023-03-21T16:28:16.524Z,28.63
2023-03-21T16:30:43.879Z,27.63
2023-03-21T16:33:14.371Z,34.17
2023-03-21T16:35:44.146Z,30.83
2023-03-21T16:38:13.672Z,28.10
2023-03-21T16:40:43.398Z,29.90
2023-03-21T16:43:11.718Z,30.73
2023-03-21T16:45:39.038Z,25.67
2023-03-21T16:48:08.780Z,24.90
2023-03-21T16:50:37.876Z,28.47
2023-03-21T16:53:05.342Z,31.13
2023-03-21T16:55:34.772Z,27.77
2023-03-21T16:58:02.641Z,27.53
2023-03-21T17:00:30.869Z,35.03
2023-03-21T17:03:00.845Z,32.33
2023-03-21T17:05:30.625Z,32.87
2023-03-21T17:08:02.134Z,32.10
2023-03-21T17:10:30.872Z,35.70
2023-03-21T17:12:58.145Z,32.80
2023-03-21T17:15:25.663Z,37.03
2023-03-21T17:17:55.518Z,37.57
2023-03-21T17:20:25.281Z,36.50
2023-03-21T17:22:52.565Z,36.20
2023-03-21T17:25:20.006Z,32.70
2023-03-21T17:27:48.126Z,37.17
2023-03-21T17:30:29.458Z,33.50
2023-03-21T17:32:56.823Z,45.20
2023-03-21T17:35:24.863Z,50.57
2023-03-21T17:37:54.716Z,54.47
2023-03-21T17:40:26.577Z,71.10
2023-03-21T17:42:55.540Z,98.90
2023-03-21T17:45:23.393Z,121.17
2023-03-21T17:47:51.120Z,120.60
2023-03-21T17:50:23.307Z,91.47
2023-03-21T17:52:51.530Z,68.43
2023-03-21T17:55:21.218Z,97.87
2023-03-21T17:57:49.640Z,113.87
2023-03-21T18:00:22.757Z,122.27
2023-03-21T18:02:50.384Z,116.07
2023-03-21T18:05:17.741Z,101.47
2023-03-21T18:08:08.662Z,82.00
2023-03-21T18:10:32.493Z,72.70
2023-03-21T18:13:00.269Z,69.90
2023-03-21T18:15:30.468Z,61.67
2023-03-21T18:17:57.935Z,65.80
2023-03-21T18:20:44.568Z,60.87
2023-03-21T18:23:14.612Z,74.13
2023-03-21T18:25:41.839Z,104.87
2023-03-21T18:28:11.858Z,97.77
2023-03-21T18:33:27.783Z,70.27
2023-03-21T18:35:59.437Z,70.20
2023-03-21T18:38:27.827Z,70.97
2023-03-21T18:40:55.656Z,63.87
2023-03-21T18:46:10.365Z,67.10
2023-03-21T18:48:37.615Z,81.53
2023-03-21T18:51:05.768Z,80.03
2023-03-21T18:53:33.056Z,69.73
2023-03-21T18:56:00.766Z,71.97
2023-03-21T18:58:29.071Z,81.70
2023-03-21T19:00:58.350Z,85.53
2023-03-21T19:03:35.734Z,72.83
2023-03-21T19:06:04.757Z,70.77
2023-03-21T19:08:34.032Z,68.03
2023-03-21T19:11:04.419Z,56.87
2023-03-21T19:13:33.559Z,53.57
2023-03-21T19:16:02.615Z,55.20
2023-03-21T19:18:49.986Z,50.37
2023-03-21T19:21:17.496Z,53.10
2023-03-21T19:24:22.549Z,63.80
2023-03-21T19:26:31.862Z,64.47
2023-03-21T19:28:59.099Z,69.90
2023-03-21T19:31:26.854Z,71.63
2023-03-21T19:33:54.197Z,67.93
2023-03-21T19:36:23.095Z,60.03
2023-03-21T19:38:50.538Z,59.63
2023-03-21T19:41:18.257Z,62.83
2023-03-21T19:43:53.630Z,62.10
2023-03-21T19:46:24.752Z,74.17
2023-03-21T19:48:56.519Z,66.03
2023-03-21T19:51:30.003Z,61.80
2023-03-21T19:54:01.540Z,67.40
2023-03-21T19:56:28.775Z,64.20
2023-03-21T19:58:56.428Z,71.67
2023-03-21T20:01:24.811Z,69.47
2023-03-21T20:03:53.449Z,76.27
2023-03-21T20:06:22.540Z,69.83
2023-03-21T20:09:27.211Z,67.43
2023-03-21T20:11:37.049Z,71.87
2023-03-21T20:14:05.370Z,67.23
2023-03-21T20:16:35.807Z,64.87
2023-03-21T20:19:09.034Z,67.97
2023-03-21T20:21:46.096Z,67.70
2023-03-21T20:24:16.549Z,70.67
2023-03-21T20:26:45.107Z,71.97
2023-03-21T20:30:05.396Z,68.10
2023-03-21T20:31:59.709Z,74.83
2023-03-21T20:34:28.500Z,75.23
2023-03-21T20:36:56.482Z,76.73
2023-03-21T20:39:24.649Z,78.37
2023-03-21T20:41:54.673Z,82.97
2023-03-21T20:44:57.353Z,72.60
2023-03-21T20:47:09.111Z,78.70
2023-03-21T20:49:36.545Z,78.50
2023-03-21T20:54:54.733Z,82.17
2023-03-21T20:57:22.248Z,80.13
2023-03-21T20:59:50.081Z,78.40
2023-03-21T21:02:17.283Z,74.50
2023-03-21T21:05:05.081Z,74.07
2023-03-21T21:07:31.738Z,67.53
2023-03-21T21:09:59.054Z,66.50
2023-03-21T21:12:29.249Z,61.97
2023-03-21T21:14:56.762Z,68.97
2023-03-21T21:17:54.151Z,62.53
2023-03-21T21:20:18.248Z,65.33
2023-03-21T21:22:58.450Z,61.43
2023-03-21T21:25:26.725Z,65.63
2023-03-21T21:27:53.965Z,74.27
2023-03-21T21:30:21.347Z,68.13
2023-03-21T21:32:49.505Z,70.63
2023-03-21T21:35:18.127Z,59.60
2023-03-21T21:37:45.369Z,71.13
2023-03-21T21:40:15.149Z,60.67
2023-03-21T21:42:43.249Z,62.90
2023-03-21T21:45:11.877Z,61.83
2023-03-21T21:47:39.179Z,59.83
2023-03-21T21:50:07.446Z,59.87
2023-03-21T21:52:34.731Z,59.57
2023-03-21T21:55:02.207Z,60.00
2023-03-21T21:57:34.786Z,55.67
2023-03-21T22:00:06.707Z,60.63
2023-03-21T22:02:34.151Z,65.27
2023-03-21T22:05:01.390Z,62.60
2023-03-21T22:07:28.825Z,63.17
2023-03-21T22:09:56.164Z,59.30
2023-03-21T22:12:23.373Z,62.63
2023-03-21T22:14:51.055Z,58.60
2023-03-21T22:17:18.238Z,66.03
2023-03-21T22:19:58.947Z,69.13
2023-03-21T22:22:31.824Z,66.37
2023-03-21T22:24:59.048Z,63.57
2023-03-21T22:27:26.245Z,54.20
2023-03-21T22:29:53.560Z,56.07
2023-03-21T22:32:21.434Z,60.07
2023-03-21T22:34:48.667Z,55.20
2023-03-21T22:37:16.118Z,56.83
2023-03-21T22:39:43.345Z,59.03
2023-03-21T22:42:10.558Z,56.77
2023-03-21T22:44:37.760Z,57.30
2023-03-21T22:47:06.165Z,56.40
2023-03-21T22:49:33.588Z,57.43
2023-03-21T22:52:01.416Z,60.73
2023-03-21T22:54:28.645Z,58.03
2023-03-21T22:56:57.080Z,60.17
2023-03-21T22:59:24.843Z,56.27
2023-03-21T23:01:52.460Z,57.13
2023-03-21T23:04:19.735Z,58.10
2023-03-21T23:06:47.246Z,60.27
2023-03-21T23:09:14.525Z,57.43
2023-03-21T23:11:42.967Z,63.27
2023-03-21T23:14:10.212Z,68.77
2023-03-21T23:16:38.466Z,61.50
2023-03-21T23:19:07.845Z,60.30
2023-03-21T23:21:36.644Z,62.50
2023-03-21T23:24:03.847Z,61.33
2023-03-21T23:26:31.443Z,61.50
2023-03-21T23:28:58.719Z,62.87
2023-03-21T23:31:27.702Z,63.03
2023-03-21T23:33:55.995Z,66.07
2023-03-21T23:36:23.334Z,58.20
2023-03-21T23:38:50.927Z,53.90
2023-03-21T23:41:19.640Z,69.87
2023-03-21T23:43:47.400Z,69.57
2023-03-21T23:46:15.554Z,69.53
2023-03-21T23:48:43.475Z,66.50
2023-03-21T23:51:11.256Z,61.57
2023-03-21T23:53:39.389Z,66.27
2023-03-21T23:56:14.248Z,76.00
2023-03-21T23:58:50.090Z,74.17
